createdAt,value
2019-03-03T00:01:54.030Z,23.00
2019-03-03T00:04:24.454Z,23.00
2019-03-03T00:06:54.816Z,23.00
2019-03-03T00:09:25.273Z,23.00
2019-03-03T00:11:55.690Z,23.00
2019-03-03T00:14:26.120Z,23.00
2019-03-03T00:16:56.659Z,23.00
2019-03-03T00:19:27.093Z,23.10
2019-03-03T00:21:57.523Z,23.00
2019-03-03T00:24:29.613Z,23.00
2019-03-03T00:26:59.985Z,23.00
2019-03-03T00:29:30.425Z,23.10
2019-03-03T00:32:00.727Z,23.00
2019-03-03T00:34:31.239Z,23.10
2019-03-03T00:37:29.671Z,23.10
2019-03-03T00:40:27.494Z,23.70
2019-03-03T00:43:03.715Z,23.10
2019-03-03T00:45:42.115Z,23.10
2019-03-03T00:48:21.118Z,23.20
2019-03-03T00:51:16.619Z,23.10
2019-03-03T00:54:17.560Z,23.10
2019-03-03T00:57:06.875Z,23.10
2019-03-03T00:59:46.423Z,23.20
2019-03-03T01:02:32.742Z,23.20
2019-03-03T01:05:18.494Z,23.20
2019-03-03T01:08:06.590Z,23.20
2019-03-03T01:10:46.706Z,23.20
2019-03-03T01:13:32.017Z,23.30
2019-03-03T01:16:27.408Z,23.20
2019-03-03T01:19:34.923Z,23.30
2019-03-03T01:22:30.106Z,23.30
2019-03-03T01:25:00.438Z,23.30
2019-03-03T01:27:30.824Z,23.30
2019-03-03T01:30:01.303Z,23.30
2019-03-03T01:32:31.834Z,23.30
2019-03-03T01:35:02.287Z,23.30
2019-03-03T01:37:32.759Z,23.30
2019-03-03T01:40:03.155Z,23.40
2019-03-03T01:42:33.644Z,23.40
2019-03-03T01:45:04.554Z,23.40
2019-03-03T01:47:35.082Z,23.50
2019-03-03T01:50:07.349Z,23.50
2019-03-03T01:52:37.860Z,23.50
2019-03-03T01:55:08.898Z,23.50
2019-03-03T01:57:39.280Z,23.60
2019-03-03T02:00:21.687Z,23.60
2019-03-03T02:02:52.318Z,23.60
2019-03-03T02:05:23.703Z,24.20
2019-03-03T02:07:54.198Z,23.60
2019-03-03T02:10:24.664Z,23.60
2019-03-03T02:12:56.053Z,23.60
2019-03-03T02:15:26.505Z,23.60
2019-03-03T02:17:56.898Z,23.60
2019-03-03T02:20:27.946Z,23.60
2019-03-03T02:22:58.360Z,23.60
2019-03-03T02:25:28.769Z,23.60
2019-03-03T02:27:59.111Z,23.60
2019-03-03T02:30:29.433Z,23.60
2019-03-03T02:32:59.813Z,23.60
2019-03-03T02:35:30.097Z,23.60
2019-03-03T02:38:00.439Z,23.70
2019-03-03T02:40:30.754Z,23.70
2019-03-03T02:43:01.205Z,23.70
2019-03-03T02:45:31.646Z,23.70
2019-03-03T02:48:02.251Z,23.70
2019-03-03T02:50:32.780Z,23.70
2019-03-03T02:53:03.236Z,23.70
2019-03-03T02:55:33.516Z,23.80
2019-03-03T02:58:04.906Z,23.80
2019-03-03T03:00:38.262Z,23.80
2019-03-03T03:03:11.047Z,23.80
2019-03-03T03:05:50.318Z,23.80
2019-03-03T03:08:27.912Z,23.80
2019-03-03T03:11:11.822Z,23.90
2019-03-03T03:14:04.378Z,23.90
2019-03-03T03:16:41.067Z,23.90
2019-03-03T03:19:20.726Z,23.90
2019-03-03T03:21:56.758Z,23.90
2019-03-03T03:24:43.144Z,23.90
2019-03-03T03:27:26.394Z,23.90
2019-03-03T03:30:24.055Z,23.90
2019-03-03T03:33:25.254Z,24.00
2019-03-03T03:36:06.605Z,24.00
2019-03-03T03:38:59.036Z,24.00
2019-03-03T03:41:47.076Z,24.00
2019-03-03T03:44:33.488Z,24.00
2019-03-03T03:47:21.348Z,24.00
2019-03-03T03:50:13.629Z,24.00
2019-03-03T03:53:18.003Z,24.00
2019-03-03T03:56:04.450Z,24.00
2019-03-03T03:58:53.811Z,24.00
2019-03-03T04:01:48.973Z,24.10
2019-03-03T04:04:28.511Z,24.10
2019-03-03T04:07:29.869Z,24.10
2019-03-03T04:10:25.380Z,24.10
2019-03-03T04:13:01.761Z,24.20
2019-03-03T04:15:43.822Z,24.30
2019-03-03T04:18:24.464Z,24.20
2019-03-03T04:21:12.222Z,24.20
2019-03-03T04:24:00.231Z,24.20
2019-03-03T04:27:01.542Z,24.20
2019-03-03T04:29:50.867Z,24.30
2019-03-03T04:32:29.734Z,24.20
2019-03-03T04:35:14.483Z,24.30
2019-03-03T04:37:58.812Z,24.30
2019-03-03T04:40:57.190Z,24.20
2019-03-03T04:43:36.271Z,24.30
2019-03-03T04:46:20.058Z,24.30
2019-03-03T04:49:07.846Z,24.30
2019-03-03T04:52:02.993Z,24.30
2019-03-03T04:54:43.354Z,24.20
2019-03-03T04:57:44.711Z,24.30
2019-03-03T05:00:32.402Z,24.30
2019-03-03T05:03:18.224Z,24.30
2019-03-03T05:06:07.504Z,24.30
2019-03-03T05:08:45.542Z,24.30
2019-03-03T05:12:04.810Z,24.30
2019-03-03T05:14:38.321Z,24.20
2019-03-03T05:17:27.714Z,24.30
2019-03-03T05:19:59.895Z,24.30
2019-03-03T05:22:30.374Z,24.30
2019-03-03T05:25:00.742Z,24.30
2019-03-03T05:27:31.156Z,24.30
2019-03-03T05:30:01.618Z,24.30
2019-03-03T05:32:31.970Z,24.30
2019-03-03T05:35:02.395Z,24.30
2019-03-03T05:37:32.868Z,24.30
2019-03-03T05:40:03.296Z,24.30
2019-03-03T05:42:33.609Z,24.30
2019-03-03T05:45:04.082Z,24.30
2019-03-03T05:47:34.498Z,24.30
2019-03-03T05:50:04.957Z,24.40
2019-03-03T05:52:35.426Z,24.30
2019-03-03T05:55:05.917Z,24.30
2019-03-03T05:57:36.199Z,24.30
2019-03-03T06:00:06.650Z,24.30
2019-03-03T06:02:36.952Z,24.30
2019-03-03T06:05:07.371Z,24.30
2019-03-03T06:07:37.768Z,24.30
2019-03-03T06:10:08.380Z,24.90
2019-03-03T06:12:38.622Z,24.30
2019-03-03T06:15:10.305Z,24.30
2019-03-03T06:17:40.652Z,24.30
2019-03-03T06:20:11.683Z,24.30
2019-03-03T06:22:42.103Z,24.40
2019-03-03T06:25:12.609Z,24.40
2019-03-03T06:27:42.921Z,24.40
2019-03-03T06:30:14.012Z,24.40
2019-03-03T06:32:44.317Z,24.40
2019-03-03T06:35:14.665Z,24.40
2019-03-03T06:37:44.959Z,24.40
2019-03-03T06:40:15.265Z,24.40
2019-03-03T06:42:45.543Z,24.40
2019-03-03T06:45:15.797Z,25.00
2019-03-03T06:47:46.054Z,24.50
2019-03-03T06:50:16.380Z,24.50
2019-03-03T06:52:46.644Z,24.50
2019-03-03T06:55:16.968Z,24.50
2019-03-03T06:57:47.263Z,24.60
2019-03-03T07:00:18.122Z,24.50
2019-03-03T07:02:48.493Z,24.50
2019-03-03T07:05:19.751Z,24.60
2019-03-03T07:07:50.131Z,24.60
2019-03-03T07:10:20.426Z,24.60
2019-03-03T07:12:50.905Z,24.60
2019-03-03T07:15:21.269Z,24.60
2019-03-03T07:17:51.732Z,24.60
2019-03-03T07:20:22.054Z,24.70
2019-03-03T07:22:52.515Z,24.70
2019-03-03T07:25:22.931Z,24.70
2019-03-03T07:27:53.251Z,24.70
2019-03-03T07:30:23.811Z,24.80
2019-03-03T07:33:31.319Z,24.80
2019-03-03T07:36:01.603Z,24.80
2019-03-03T07:38:31.933Z,24.90
2019-03-03T07:41:02.535Z,24.90
2019-03-03T07:43:33.013Z,24.90
2019-03-03T07:46:03.784Z,24.90
2019-03-03T07:48:34.320Z,24.90
2019-03-03T07:51:04.896Z,24.90
2019-03-03T07:53:35.316Z,24.90
2019-03-03T07:56:05.792Z,24.90
2019-03-03T07:58:36.322Z,24.90
2019-03-03T08:01:06.792Z,24.90
2019-03-03T08:03:37.253Z,24.90
2019-03-03T08:06:07.756Z,24.90
2019-03-03T08:08:38.220Z,25.00
2019-03-03T08:11:08.685Z,25.00
2019-03-03T08:13:39.119Z,25.00
2019-03-03T08:16:10.902Z,25.00
2019-03-03T08:18:41.467Z,25.00
2019-03-03T08:21:11.878Z,25.00
2019-03-03T08:23:42.263Z,25.00
2019-03-03T08:26:12.717Z,25.00
2019-03-03T08:28:43.137Z,25.00
2019-03-03T08:31:13.472Z,25.10
2019-03-03T08:33:43.926Z,25.10
2019-03-03T08:36:14.311Z,25.10
2019-03-03T08:38:44.779Z,25.10
2019-03-03T08:41:15.133Z,25.00
2019-03-03T08:43:50.474Z,25.10
2019-03-03T08:46:38.630Z,25.10
2019-03-03T08:49:26.465Z,25.10
2019-03-03T08:52:30.930Z,25.00
2019-03-03T08:55:20.315Z,25.00
2019-03-03T08:58:08.251Z,25.10
2019-03-03T09:01:03.847Z,25.10
2019-03-03T09:03:40.239Z,25.10
2019-03-03T09:06:26.489Z,25.10
2019-03-03T09:09:14.238Z,25.10
2019-03-03T09:12:12.376Z,25.10
2019-03-03T09:14:59.359Z,25.20
2019-03-03T09:17:55.578Z,25.20
2019-03-03T09:20:47.728Z,25.20
2019-03-03T09:23:43.806Z,25.20
2019-03-03T09:26:41.992Z,25.30
2019-03-03T09:29:25.405Z,25.30
2019-03-03T09:32:29.654Z,25.30
2019-03-03T09:35:08.283Z,25.30
2019-03-03T09:37:57.606Z,25.30
2019-03-03T09:40:36.980Z,25.30
2019-03-03T09:43:19.081Z,25.30
2019-03-03T09:46:11.443Z,25.30
2019-03-03T09:48:59.227Z,25.40
2019-03-03T09:51:47.302Z,25.40
2019-03-03T09:54:35.206Z,25.30
2019-03-03T09:57:33.623Z,25.40
2019-03-03T10:00:17.942Z,25.40
2019-03-03T10:03:10.036Z,25.40
2019-03-03T10:05:58.948Z,25.50
2019-03-03T10:08:57.048Z,25.50
2019-03-03T10:11:46.458Z,25.50
2019-03-03T10:14:25.153Z,25.50
2019-03-03T10:17:02.999Z,25.50
2019-03-03T10:19:55.080Z,25.50
2019-03-03T10:22:30.404Z,25.50
2019-03-03T10:25:22.789Z,25.50
2019-03-03T10:28:30.165Z,25.50
2019-03-03T10:31:28.306Z,25.50
2019-03-03T10:34:17.590Z,25.60
2019-03-03T10:37:01.539Z,25.60
2019-03-03T10:39:39.655Z,25.60
2019-03-03T10:42:25.387Z,25.60
2019-03-03T10:45:17.849Z,25.60
2019-03-03T10:48:07.256Z,25.60
2019-03-03T10:51:05.415Z,25.60
2019-03-03T10:53:41.517Z,25.60
2019-03-03T10:56:20.436Z,25.70
2019-03-03T10:59:27.961Z,25.60
2019-03-03T11:02:15.847Z,25.70
2019-03-03T11:05:02.461Z,25.70
2019-03-03T11:07:50.501Z,25.70
2019-03-03T11:10:37.017Z,25.60
2019-03-03T11:13:32.178Z,25.60
2019-03-03T11:16:20.263Z,25.60
2019-03-03T11:19:03.652Z,25.70
2019-03-03T11:21:51.736Z,25.80
2019-03-03T11:24:59.321Z,25.70
2019-03-03T11:27:39.815Z,25.80
2019-03-03T11:30:29.257Z,25.80
2019-03-03T11:33:17.073Z,25.80
2019-03-03T11:36:03.800Z,25.80
2019-03-03T11:39:08.275Z,25.80
2019-03-03T11:41:54.568Z,25.90
2019-03-03T11:44:33.531Z,25.90
2019-03-03T11:47:22.859Z,25.80
2019-03-03T11:50:10.769Z,25.90
2019-03-03T11:52:49.086Z,25.90
2019-03-03T11:55:27.791Z,25.90
2019-03-03T11:58:09.070Z,26.00
2019-03-03T12:01:07.235Z,26.00
2019-03-03T12:03:53.623Z,26.00
2019-03-03T12:06:48.381Z,26.10
2019-03-03T12:09:36.083Z,26.10
2019-03-03T12:12:24.004Z,26.20
2019-03-03T12:15:02.328Z,26.20
2019-03-03T12:17:43.684Z,26.20
2019-03-03T12:20:44.931Z,26.20
2019-03-03T12:23:43.197Z,26.20
2019-03-03T12:26:35.494Z,26.40
2019-03-03T12:29:34.427Z,26.50
2019-03-03T12:32:29.753Z,26.40
2019-03-03T12:35:20.345Z,26.50
2019-03-03T12:38:21.732Z,26.60
2019-03-03T12:41:06.403Z,26.70
2019-03-03T12:43:49.941Z,27.20
2019-03-03T12:46:45.090Z,26.70
2019-03-03T12:49:32.929Z,26.70
2019-03-03T12:52:23.163Z,26.80
2019-03-03T12:55:00.311Z,26.80
2019-03-03T12:57:58.298Z,26.90
2019-03-03T13:00:47.714Z,27.00
2019-03-03T13:03:35.651Z,26.90
2019-03-03T13:06:33.079Z,27.00
2019-03-03T13:09:22.397Z,27.00
2019-03-03T13:12:16.841Z,27.00
2019-03-03T13:15:08.962Z,27.00
2019-03-03T13:17:51.614Z,27.00
2019-03-03T13:20:30.041Z,27.00
2019-03-03T13:23:17.722Z,27.00
2019-03-03T13:26:09.793Z,27.00
2019-03-03T13:29:02.921Z,27.00
2019-03-03T13:31:50.707Z,27.00
2019-03-03T13:34:40.027Z,27.00
2019-03-03T13:37:27.815Z,27.10
2019-03-03T13:40:20.295Z,27.40
2019-03-03T13:42:56.646Z,27.90
2019-03-03T13:45:29.099Z,28.30
2019-03-03T13:47:59.653Z,29.00
2019-03-03T13:50:33.718Z,30.90
2019-03-03T13:53:05.690Z,31.10
2019-03-03T13:55:36.331Z,30.90
2019-03-03T14:00:51.409Z,31.10
2019-03-03T14:03:20.992Z,31.60
2019-03-03T14:08:25.832Z,31.80
2019-03-03T14:13:35.989Z,32.60
2019-03-03T14:16:09.347Z,33.50
2019-03-03T14:18:39.822Z,32.90
2019-03-03T14:21:10.351Z,32.70
2019-03-03T14:33:05.425Z,35.90
2019-03-03T14:35:35.815Z,36.00
2019-03-03T14:38:06.247Z,36.20
2019-03-03T14:40:36.715Z,35.90
2019-03-03T14:43:07.259Z,37.10
2019-03-03T14:45:37.519Z,37.40
2019-03-03T14:48:07.909Z,37.30
2019-03-03T14:50:38.292Z,38.30
2019-03-03T14:53:08.718Z,38.10
2019-03-03T14:55:38.981Z,37.10
2019-03-03T14:58:09.423Z,36.80
2019-03-03T15:00:39.752Z,36.20
2019-03-03T15:03:10.145Z,35.90
2019-03-03T15:05:40.471Z,35.60
2019-03-03T15:08:11.966Z,35.50
2019-03-03T15:13:12.102Z,34.20
2019-03-03T15:15:42.487Z,34.30
2019-03-03T15:18:12.912Z,34.00
2019-03-03T15:20:43.308Z,34.00
2019-03-03T15:23:13.803Z,34.20
2019-03-03T15:25:44.209Z,34.00
2019-03-03T15:28:14.534Z,33.90
2019-03-03T15:30:46.143Z,33.80
2019-03-03T15:33:16.519Z,33.60
2019-03-03T15:35:46.917Z,33.50
2019-03-03T15:38:17.388Z,33.30
2019-03-03T15:40:47.865Z,33.10
2019-03-03T15:43:19.213Z,33.20
2019-03-03T15:45:49.642Z,33.20
2019-03-03T15:48:20.079Z,33.10
2019-03-03T15:50:50.451Z,32.90
2019-03-03T15:53:20.905Z,32.90
2019-03-03T15:55:51.410Z,32.70
2019-03-03T15:58:21.752Z,32.70
2019-03-03T16:00:52.393Z,32.60
2019-03-03T16:03:22.707Z,32.50
2019-03-03T16:05:53.238Z,32.40
2019-03-03T16:08:23.622Z,32.50
2019-03-03T16:10:54.079Z,32.50
2019-03-03T16:13:24.403Z,32.50
2019-03-03T16:15:54.844Z,32.30
2019-03-03T16:18:25.210Z,32.30
2019-03-03T16:20:55.672Z,32.20
2019-03-03T16:23:26.046Z,32.20
2019-03-03T16:25:56.417Z,32.10
2019-03-03T16:28:26.918Z,32.00
2019-03-03T16:30:57.543Z,32.10
2019-03-03T16:33:27.826Z,32.00
2019-03-03T16:35:58.339Z,32.10
2019-03-03T16:38:28.806Z,32.00
2019-03-03T16:40:59.276Z,32.00
2019-03-03T16:43:29.722Z,31.90
2019-03-03T16:46:00.132Z,31.90
2019-03-03T16:48:30.400Z,31.90
2019-03-03T16:51:00.985Z,31.90
2019-03-03T16:53:31.412Z,31.80
2019-03-03T16:56:01.740Z,31.80
2019-03-03T16:58:32.215Z,31.80
2019-03-03T17:01:02.647Z,31.80
2019-03-03T17:03:33.155Z,31.70
2019-03-03T17:06:03.544Z,31.70
2019-03-03T17:08:34.023Z,31.80
2019-03-03T17:11:04.378Z,31.80
2019-03-03T17:13:34.740Z,31.70
2019-03-03T17:16:05.285Z,31.60
2019-03-03T17:18:35.794Z,31.60
2019-03-03T17:21:06.127Z,31.60
2019-03-03T17:23:36.534Z,31.60
2019-03-03T17:26:09.451Z,31.70
2019-03-03T17:28:40.127Z,31.60
2019-03-03T17:31:12.290Z,31.60
2019-03-03T17:33:42.783Z,31.60
2019-03-03T17:36:13.153Z,31.60
2019-03-03T17:38:43.573Z,31.60
2019-03-03T17:41:14.046Z,31.60
2019-03-03T17:43:44.587Z,31.50
2019-03-03T17:46:14.935Z,31.50
2019-03-03T17:48:45.312Z,31.60
2019-03-03T17:51:15.609Z,31.60
2019-03-03T17:53:45.929Z,31.60
2019-03-03T17:56:16.952Z,31.50
2019-03-03T17:58:47.275Z,31.50
2019-03-03T18:01:17.779Z,31.50
2019-03-03T18:03:48.315Z,31.50
2019-03-03T18:06:18.775Z,31.50
2019-03-03T18:08:49.252Z,31.50
2019-03-03T18:11:20.030Z,31.50
2019-03-03T18:13:50.388Z,31.50
2019-03-03T18:16:20.783Z,31.50
2019-03-03T18:18:51.174Z,31.50
2019-03-03T18:21:21.741Z,31.50
2019-03-03T18:23:52.116Z,31.50
2019-03-03T18:26:22.543Z,31.50
2019-03-03T18:28:52.984Z,31.50
2019-03-03T18:31:23.428Z,31.50
2019-03-03T18:33:53.826Z,31.50
2019-03-03T18:36:24.256Z,31.50
2019-03-03T18:38:54.733Z,31.50
2019-03-03T18:41:25.136Z,31.50
2019-03-03T18:43:55.532Z,31.50
2019-03-03T18:46:25.881Z,31.50
2019-03-03T18:48:57.373Z,31.50
2019-03-03T18:51:27.723Z,31.50
2019-03-03T18:53:58.263Z,31.60
2019-03-03T18:56:28.688Z,31.50
2019-03-03T18:58:59.185Z,31.50
2019-03-03T19:01:29.655Z,31.50
2019-03-03T19:04:00.114Z,31.50
2019-03-03T19:06:30.471Z,31.50
2019-03-03T19:09:00.999Z,31.50
2019-03-03T19:11:33.030Z,31.50
2019-03-03T19:14:03.369Z,31.50
2019-03-03T19:16:33.818Z,31.50
2019-03-03T19:19:04.652Z,31.50
2019-03-03T19:21:36.137Z,31.50
2019-03-03T19:24:06.623Z,31.50
2019-03-03T19:26:38.012Z,31.40
2019-03-03T19:29:09.407Z,31.50
2019-03-03T19:31:40.729Z,31.50
2019-03-03T19:34:12.133Z,31.50
2019-03-03T19:36:42.601Z,31.50
2019-03-03T19:39:13.013Z,31.50
2019-03-03T19:41:44.532Z,31.50
2019-03-03T19:44:14.856Z,31.50
2019-03-03T19:46:45.224Z,31.60
2019-03-03T19:49:15.727Z,31.50
2019-03-03T19:51:47.027Z,31.50
2019-03-03T19:54:17.477Z,31.50
2019-03-03T19:56:47.905Z,31.60
2019-03-03T19:59:18.507Z,31.50
2019-03-03T20:01:49.032Z,31.60
2019-03-03T20:04:19.388Z,31.60
2019-03-03T20:06:49.787Z,31.60
2019-03-03T20:09:20.676Z,31.60
2019-03-03T20:11:51.048Z,31.50
2019-03-03T20:14:21.594Z,31.60
2019-03-03T20:16:52.074Z,31.60
2019-03-03T20:19:22.616Z,31.60
2019-03-03T20:21:53.039Z,31.60
2019-03-03T20:24:23.437Z,31.60
2019-03-03T20:26:53.971Z,32.30
2019-03-03T20:29:24.446Z,31.70
2019-03-03T20:31:55.043Z,31.60
2019-03-03T20:34:25.625Z,31.70
2019-03-03T20:36:56.019Z,31.70
2019-03-03T20:39:26.499Z,31.60
2019-03-03T20:41:57.054Z,31.60
2019-03-03T20:44:27.533Z,31.60
2019-03-03T20:46:57.792Z,31.60
2019-03-03T20:49:28.068Z,31.60
2019-03-03T20:51:58.489Z,31.60
2019-03-03T20:54:28.833Z,31.70
2019-03-03T20:56:59.262Z,31.70
2019-03-03T20:59:29.922Z,31.70
2019-03-03T21:02:00.272Z,31.60
2019-03-03T21:04:30.731Z,31.70
2019-03-03T21:07:01.113Z,31.70
2019-03-03T21:09:31.473Z,31.70
2019-03-03T21:12:01.900Z,31.70
2019-03-03T21:14:32.439Z,31.70
2019-03-03T21:17:02.835Z,31.70
2019-03-03T21:19:33.280Z,31.70
2019-03-03T21:22:03.700Z,31.70
2019-03-03T21:24:34.234Z,31.60
2019-03-03T21:27:04.604Z,31.80
2019-03-03T21:29:36.071Z,31.70
2019-03-03T21:32:06.556Z,31.80
2019-03-03T21:34:37.013Z,31.80
2019-03-03T21:37:07.458Z,31.80
2019-03-03T21:39:37.839Z,31.80
2019-03-03T21:42:08.367Z,31.80
2019-03-03T21:44:38.679Z,31.80
2019-03-03T21:47:09.108Z,31.70
2019-03-03T21:49:39.616Z,31.70
2019-03-03T21:52:09.987Z,31.70
2019-03-03T21:54:40.396Z,31.80
2019-03-03T21:57:10.773Z,31.70
2019-03-03T21:59:41.251Z,31.90
2019-03-03T22:02:11.660Z,31.70
2019-03-03T22:04:42.049Z,31.70
2019-03-03T22:07:13.939Z,31.70
2019-03-03T22:09:44.302Z,31.80
2019-03-03T22:12:14.733Z,31.70
2019-03-03T22:14:45.124Z,31.90
2019-03-03T22:17:15.449Z,31.90
2019-03-03T22:19:45.956Z,31.80
2019-03-03T22:22:16.327Z,31.80
2019-03-03T22:24:46.632Z,31.90
2019-03-03T22:27:17.135Z,31.90
2019-03-03T22:29:47.524Z,31.90
2019-03-03T22:32:17.954Z,31.90
2019-03-03T22:34:48.346Z,31.90
2019-03-03T22:37:18.734Z,31.90
2019-03-03T22:39:49.091Z,31.90
2019-03-03T22:42:19.539Z,31.80
2019-03-03T22:44:50.004Z,31.80
2019-03-03T22:47:20.302Z,31.90
2019-03-03T22:49:50.646Z,31.80
2019-03-03T22:52:21.134Z,32.00
2019-03-03T22:54:51.549Z,31.80
2019-03-03T22:57:22.026Z,31.90
2019-03-03T22:59:52.358Z,31.80
2019-03-03T23:02:23.307Z,31.90
2019-03-03T23:05:37.239Z,31.90
2019-03-03T23:08:21.154Z,31.90
2019-03-03T23:11:19.790Z,31.90
2019-03-03T23:14:02.275Z,32.00
2019-03-03T23:17:24.779Z,31.90
2019-03-03T23:20:09.003Z,31.90
2019-03-03T23:23:21.828Z,31.90
2019-03-03T23:25:53.112Z,31.90
2019-03-03T23:28:26.675Z,32.00
2019-03-03T23:30:57.712Z,32.00
2019-03-03T23:33:28.094Z,32.00
2019-03-03T23:35:58.439Z,31.90
2019-03-03T23:38:28.845Z,32.00
2019-03-03T23:40:59.295Z,31.90
2019-03-03T23:43:29.655Z,32.10
2019-03-03T23:46:00.099Z,32.10
2019-03-03T23:48:30.502Z,32.10
2019-03-03T23:51:00.914Z,32.10
2019-03-03T23:53:31.418Z,32.10
2019-03-03T23:56:01.877Z,32.10
2019-03-03T23:58:32.325Z,31.90
